Oostkamp, Belgium
Current Conditions -  °F | °C
As of 8:20 PM on Friday 24 Oct 2014 (Local Time) from EBOS Reporting Station
Moderate Rain Moderate Rain  
Wind Chill: 54°   Ceiling: 600
Heat Index: 54°   Visibility: 3mi
Dew Point: 50°   Wind: 13mph
Humidity: 88%   Direction: 180°S
Pressure: 29.97"   Gusts: NA
Location:  51.15°N, 3.23°E
Report Text: EBOS 241820Z 18011KT 5000 RA SCT004 BKN006 12/10 Q1015 TEMPO 2000 DZRA BKN004
Loading
Personal Weather Stations






























Interactive Weather Map
Tropical Storm Tracking
New forecast layout! Learn more

10-Day Weather Forecast

Advertisements
Track Severe Weather on mobile